Terminal Aerodrome Forecast
Issued by NWS Paducah, KY

Home | Current Version | Previous Version | Text Only | Print | Product List | Glossary On
Versions: 1 2 3 4 5 6 7 8 9 10 11 12 13 14 15 16 17 18 19 20 21
083
FTUS43 KPAH 082320
TAFEVV
TAF
KEVV 082320Z 0900/0924 30013G19KT 5SM -SHSN OVC040
      TEMPO 0900/0902 1SM -SN BR BKN015 OVC025
     FM090600 29012KT 6SM -SN BKN020 OVC040
      TEMPO 0907/0910 3SM -SN BR OVC020=

USA.gov is the U.S. government's official web portal to all federal, state and local government web resources and services.